sensor_id;sensor_type;location;lat;lon;timestamp;pressure;altitude;pressure_sealevel;temperature;humidity
43153;BME280;28756;49.064;9.290;2024-02-21T00:01:08;100151.19;;;5.12;100.00
43153;BME280;28756;49.064;9.290;2024-02-21T00:03:34;100145.13;;;5.15;100.00
43153;BME280;28756;49.064;9.290;2024-02-21T00:06:00;100148.56;;;5.14;100.00
43153;BME280;28756;49.064;9.290;2024-02-21T00:08:25;100154.53;;;5.17;100.00
43153;BME280;28756;49.064;9.290;2024-02-21T00:10:51;100148.53;;;5.17;100.00
43153;BME280;28756;49.064;9.290;2024-02-21T00:13:17;100138.13;;;5.21;100.00
43153;BME280;28756;49.064;9.290;2024-02-21T00:15:43;100129.53;;;5.21;100.00
43153;BME280;28756;49.064;9.290;2024-02-21T00:18:08;100128.72;;;5.19;100.00
43153;BME280;28756;49.064;9.290;2024-02-21T00:20:36;100126.13;;;5.19;100.00
43153;BME280;28756;49.064;9.290;2024-02-21T00:23:03;100127.00;;;5.18;100.00
43153;BME280;28756;49.064;9.290;2024-02-21T00:25:29;100113.22;;;5.20;100.00
43153;BME280;28756;49.064;9.290;2024-02-21T00:27:54;100103.72;;;5.22;100.00
43153;BME280;28756;49.064;9.290;2024-02-21T00:30:21;100095.19;;;5.20;100.00
43153;BME280;28756;49.064;9.290;2024-02-21T00:32:46;100088.28;;;5.21;100.00
43153;BME280;28756;49.064;9.290;2024-02-21T00:35:14;100093.47;;;5.19;100.00
43153;BME280;28756;49.064;9.290;2024-02-21T00:37:40;100096.88;;;5.20;100.00
43153;BME280;28756;49.064;9.290;2024-02-21T00:40:06;100090.03;;;5.20;100.00
43153;BME280;28756;49.064;9.290;2024-02-21T00:42:38;100086.53;;;5.23;100.00
43153;BME280;28756;49.064;9.290;2024-02-21T00:45:04;100090.81;;;5.24;100.00
43153;BME280;28756;49.064;9.290;2024-02-21T00:47:30;100083.06;;;5.26;100.00
43153;BME280;28756;49.064;9.290;2024-02-21T00:49:56;100085.63;;;5.26;100.00
43153;BME280;28756;49.064;9.290;2024-02-21T00:52:22;100077.91;;;5.26;100.00
43153;BME280;28756;49.064;9.290;2024-02-21T00:54:47;100081.34;;;5.25;100.00
43153;BME280;28756;49.064;9.290;2024-02-21T00:57:14;100081.34;;;5.25;100.00
43153;BME280;28756;49.064;9.290;2024-02-21T00:59:40;100079.59;;;5.25;100.00
43153;BME280;28756;49.064;9.290;2024-02-21T01:02:07;100072.75;;;5.26;100.00
43153;BME280;28756;49.064;9.290;2024-02-21T01:04:35;100073.59;;;5.25;100.00
43153;BME280;28756;49.064;9.290;2024-02-21T01:07:00;100071.88;;;5.25;100.00
43153;BME280;28756;49.064;9.290;2024-02-21T01:09:26;100072.75;;;5.26;100.00
43153;BME280;28756;49.064;9.290;2024-02-21T01:11:52;100066.75;;;5.24;100.00
43153;BME280;28756;49.064;9.290;2024-02-21T01:14:18;100058.19;;;5.21;100.00
43153;BME280;28756;49.064;9.290;2024-02-21T01:16:44;100049.56;;;5.24;100.00
43153;BME280;28756;49.064;9.290;2024-02-21T01:19:10;100042.69;;;5.21;100.00
43153;BME280;28756;49.064;9.290;2024-02-21T01:21:36;100044.44;;;5.21;100.00
43153;BME280;28756;49.064;9.290;2024-02-21T01:24:02;100041.03;;;5.20;100.00
43153;BME280;28756;49.064;9.290;2024-02-21T01:26:27;100045.31;;;5.20;100.00
43153;BME280;28756;49.064;9.290;2024-02-21T01:28:53;100039.31;;;5.18;100.00
43153;BME280;28756;49.064;9.290;2024-02-21T01:31:19;100033.38;;;5.16;100.00
43153;BME280;28756;49.064;9.290;2024-02-21T01:33:45;100023.06;;;5.16;100.00
43153;BME280;28756;49.064;9.290;2024-02-21T01:36:11;100026.38;;;5.21;100.00
43153;BME280;28756;49.064;9.290;2024-02-21T01:38:37;100028.16;;;5.17;100.00
43153;BME280;28756;49.064;9.290;2024-02-21T01:41:03;100020.47;;;5.16;100.00
43153;BME280;28756;49.064;9.290;2024-02-21T01:43:29;100017.81;;;5.19;100.00
43153;BME280;28756;49.064;9.290;2024-02-21T01:45:56;100014.44;;;5.17;100.00
43153;BME280;28756;49.064;9.290;2024-02-21T01:48:23;100011.00;;;5.16;100.00
43153;BME280;28756;49.064;9.290;2024-02-21T01:50:50;100005.88;;;5.15;100.00
43153;BME280;28756;49.064;9.290;2024-02-21T01:53:30;100001.59;;;5.14;100.00
43153;BME280;28756;49.064;9.290;2024-02-21T01:55:56;99990.41;;;5.13;100.00
43153;BME280;28756;49.064;9.290;2024-02-21T01:58:24;99986.13;;;5.14;100.00
43153;BME280;28756;49.064;9.290;2024-02-21T02:00:50;99983.47;;;5.18;100.00
43153;BME280;28756;49.064;9.290;2024-02-21T02:03:17;99982.59;;;5.18;100.00
43153;BME280;28756;49.064;9.290;2024-02-21T02:05:48;99978.31;;;5.18;100.00
43153;BME280;28756;49.064;9.290;2024-02-21T02:08:15;99972.28;;;5.19;100.00
43153;BME280;28756;49.064;9.290;2024-02-21T02:10:42;99974.84;;;5.19;100.00
43153;BME280;28756;49.064;9.290;2024-02-21T02:13:08;99980.84;;;5.20;100.00
43153;BME280;28756;49.064;9.290;2024-02-21T02:15:47;99968.81;;;5.19;100.00
43153;BME280;28756;49.064;9.290;2024-02-21T02:18:15;99970.56;;;5.18;100.00
43153;BME280;28756;49.064;9.290;2024-02-21T02:20:41;99983.44;;;5.20;100.00
43153;BME280;28756;49.064;9.290;2024-02-21T02:23:39;99977.47;;;5.16;100.00
43153;BME280;28756;49.064;9.290;2024-02-21T02:26:05;99985.97;;;5.21;100.00
43153;BME280;28756;49.064;9.290;2024-02-21T02:28:32;99990.31;;;5.19;100.00
43153;BME280;28756;49.064;9.290;2024-02-21T02:30:58;99999.03;;;5.12;100.00
43153;BME280;28756;49.064;9.290;2024-02-21T02:33:24;100006.78;;;5.11;100.00
43153;BME280;28756;49.064;9.290;2024-02-21T02:35:50;100008.69;;;5.01;100.00
43153;BME280;28756;49.064;9.290;2024-02-21T02:38:16;100009.59;;;4.98;100.00
43153;BME280;28756;49.064;9.290;2024-02-21T02:40:42;100003.66;;;4.93;100.00
43153;BME280;28756;49.064;9.290;2024-02-21T02:43:08;99998.53;;;4.92;100.00
43153;BME280;28756;49.064;9.290;2024-02-21T02:45:34;99997.69;;;4.91;100.00
43153;BME280;28756;49.064;9.290;2024-02-21T02:48:00;99989.91;;;4.93;100.00
43153;BME280;28756;49.064;9.290;2024-02-21T02:50:27;99992.50;;;4.93;100.00
43153;BME280;28756;49.064;9.290;2024-02-21T02:52:54;100006.25;;;4.92;100.00
43153;BME280;28756;49.064;9.290;2024-02-21T02:55:20;99998.56;;;4.90;100.00
43153;BME280;28756;49.064;9.290;2024-02-21T02:57:46;99995.19;;;4.86;100.00
43153;BME280;28756;49.064;9.290;2024-02-21T03:00:13;99995.22;;;4.83;100.00
43153;BME280;28756;49.064;9.290;2024-02-21T03:02:42;99990.13;;;4.80;100.00
43153;BME280;28756;49.064;9.290;2024-02-21T03:05:13;99983.34;;;4.74;100.00
43153;BME280;28756;49.064;9.290;2024-02-21T03:07:43;99982.53;;;4.71;100.00
43153;BME280;28756;49.064;9.290;2024-02-21T03:10:12;99972.28;;;4.69;100.00
43153;BME280;28756;49.064;9.290;2024-02-21T03:12:39;99972.28;;;4.68;100.00
43153;BME280;28756;49.064;9.290;2024-02-21T03:15:06;99979.16;;;4.66;100.00
43153;BME280;28756;49.064;9.290;2024-02-21T03:17:32;99973.19;;;4.65;100.00
43153;BME280;28756;49.064;9.290;2024-02-21T03:20:01;99969.75;;;4.65;100.00
43153;BME280;28756;49.064;9.290;2024-02-21T03:22:31;99958.56;;;4.66;100.00
43153;BME280;28756;49.064;9.290;2024-02-21T03:25:00;99958.56;;;4.66;100.00
43153;BME280;28756;49.064;9.290;2024-02-21T03:27:26;99952.56;;;4.65;100.00
43153;BME280;28756;49.064;9.290;2024-02-21T03:29:52;99940.56;;;4.64;100.00
43153;BME280;28756;49.064;9.290;2024-02-21T03:32:18;99946.59;;;4.63;100.00
43153;BME280;28756;49.064;9.290;2024-02-21T03:34:44;99936.28;;;4.65;100.00
43153;BME280;28756;49.064;9.290;2024-02-21T03:37:10;99944.00;;;4.63;100.00
43153;BME280;28756;49.064;9.290;2024-02-21T03:39:36;99941.50;;;4.60;100.00
43153;BME280;28756;49.064;9.290;2024-02-21T03:42:03;99943.22;;;4.59;100.00
43153;BME280;28756;49.064;9.290;2024-02-21T03:44:31;99936.38;;;4.57;100.00
43153;BME280;28756;49.064;9.290;2024-02-21T03:46:59;99939.00;;;4.55;100.00
43153;BME280;28756;49.064;9.290;2024-02-21T03:49:25;99929.59;;;4.53;100.00
43153;BME280;28756;49.064;9.290;2024-02-21T03:51:50;99925.31;;;4.50;100.00
43153;BME280;28756;49.064;9.290;2024-02-21T03:54:16;99934.78;;;4.50;100.00
43153;BME280;28756;49.064;9.290;2024-02-21T03:56:42;99928.78;;;4.48;100.00
43153;BME280;28756;49.064;9.290;2024-02-21T03:59:08;99931.41;;;4.46;100.00
43153;BME280;28756;49.064;9.290;2024-02-21T04:01:37;99929.69;;;4.45;100.00
43153;BME280;28756;49.064;9.290;2024-02-21T04:04:03;99928.88;;;4.45;100.00
43153;BME280;28756;49.064;9.290;2024-02-21T04:06:29;99929.75;;;4.42;100.00
43153;BME280;28756;49.064;9.290;2024-02-21T04:08:54;99909.13;;;4.42;100.00
43153;BME280;28756;49.064;9.290;2024-02-21T04:11:21;99907.44;;;4.42;100.00
43153;BME280;28756;49.064;9.290;2024-02-21T04:13:47;99885.06;;;4.45;100.00
43153;BME280;28756;49.064;9.290;2024-02-21T04:16:16;99885.94;;;4.42;100.00
43153;BME280;28756;49.064;9.290;2024-02-21T04:18:42;99889.41;;;4.42;100.00
43153;BME280;28756;49.064;9.290;2024-02-21T04:21:09;99879.94;;;4.45;100.00
43153;BME280;28756;49.064;9.290;2024-02-21T04:23:35;99877.44;;;4.38;100.00
43153;BME280;28756;49.064;9.290;2024-02-21T04:26:01;99880.91;;;4.37;100.00
43153;BME280;28756;49.064;9.290;2024-02-21T04:28:26;99896.31;;;4.39;100.00
43153;BME280;28756;49.064;9.290;2024-02-21T04:30:52;99887.81;;;4.35;100.00
43153;BME280;28756;49.064;9.290;2024-02-21T04:33:18;99886.94;;;4.36;100.00
43153;BME280;28756;49.064;9.290;2024-02-21T04:35:44;99892.09;;;4.35;100.00
43153;BME280;28756;49.064;9.290;2024-02-21T04:38:10;99885.25;;;4.32;100.00
43153;BME280;28756;49.064;9.290;2024-02-21T04:40:35;99889.56;;;4.30;100.00
43153;BME280;28756;49.064;9.290;2024-02-21T04:43:01;99887.06;;;4.27;100.00
43153;BME280;28756;49.064;9.290;2024-02-21T04:45:27;99888.81;;;4.25;100.00
43153;BME280;28756;49.064;9.290;2024-02-21T04:47:53;99914.59;;;4.23;100.00
43153;BME280;28756;49.064;9.290;2024-02-21T04:50:19;99908.69;;;4.18;100.00
43153;BME280;28756;49.064;9.290;2024-02-21T04:52:44;99907.88;;;4.13;100.00
43153;BME280;28756;49.064;9.290;2024-02-21T04:55:10;99901.09;;;4.07;100.00
43153;BME280;28756;49.064;9.290;2024-02-21T04:57:36;99893.53;;;3.98;100.00
43153;BME280;28756;49.064;9.290;2024-02-21T05:00:02;99892.78;;;3.90;100.00
43153;BME280;28756;49.064;9.290;2024-02-21T05:02:29;99892.03;;;3.82;100.00
43153;BME280;28756;49.064;9.290;2024-02-21T05:04:55;99897.19;;;3.82;100.00
43153;BME280;28756;49.064;9.290;2024-02-21T05:07:22;99892.88;;;3.82;100.00
43153;BME280;28756;49.064;9.290;2024-02-21T05:09:48;99885.28;;;3.73;100.00
43153;BME280;28756;49.064;9.290;2024-02-21T05:12:13;99875.03;;;3.68;100.00
43153;BME280;28756;49.064;9.290;2024-02-21T05:14:39;99870.91;;;3.58;100.00
43153;BME280;28756;49.064;9.290;2024-02-21T05:17:05;99881.28;;;3.50;100.00
43153;BME280;28756;49.064;9.290;2024-02-21T05:19:31;99874.47;;;3.47;100.00
43153;BME280;28756;49.064;9.290;2024-02-21T05:21:58;99854.75;;;3.46;100.00
43153;BME280;28756;49.064;9.290;2024-02-21T05:24:25;99852.16;;;3.50;100.00
43153;BME280;28756;49.064;9.290;2024-02-21T05:26:51;99849.50;;;3.56;100.00
43153;BME280;28756;49.064;9.290;2024-02-21T05:29:18;99858.91;;;3.55;100.00
43153;BME280;28756;49.064;9.290;2024-02-21T05:34:19;99842.69;;;3.52;100.00
43153;BME280;28756;49.064;9.290;2024-02-21T05:36:46;99834.13;;;3.51;100.00
43153;BME280;28756;49.064;9.290;2024-02-21T05:39:13;99828.09;;;3.54;100.00
43153;BME280;28756;49.064;9.290;2024-02-21T05:41:39;99831.53;;;3.54;100.00
43153;BME280;28756;49.064;9.290;2024-02-21T05:44:04;99828.97;;;3.54;100.00
43153;BME280;28756;49.064;9.290;2024-02-21T05:46:30;99822.09;;;3.55;100.00
43153;BME280;28756;49.064;9.290;2024-02-21T05:48:56;99818.69;;;3.54;100.00
43153;BME280;28756;49.064;9.290;2024-02-21T05:51:22;99823.78;;;3.56;100.00
43153;BME280;28756;49.064;9.290;2024-02-21T05:53:48;99821.19;;;3.57;100.00
43153;BME280;28756;49.064;9.290;2024-02-21T05:56:14;99817.78;;;3.55;100.00
43153;BME280;28756;49.064;9.290;2024-02-21T05:58:40;99814.44;;;3.50;100.00
43153;BME280;28756;49.064;9.290;2024-02-21T06:01:07;99817.94;;;3.46;100.00
43153;BME280;28756;49.064;9.290;2024-02-21T06:03:35;99821.47;;;3.39;100.00
43153;BME280;28756;49.064;9.290;2024-02-21T06:06:04;99830.09;;;3.31;100.00
43153;BME280;28756;49.064;9.290;2024-02-21T06:08:31;99827.69;;;3.19;100.00
43153;BME280;28756;49.064;9.290;2024-02-21T06:10:56;99838.81;;;3.20;100.00
43153;BME280;28756;49.064;9.290;2024-02-21T06:13:24;99843.22;;;3.11;100.00
43153;BME280;28756;49.064;9.290;2024-02-21T06:15:50;99833.91;;;3.01;100.00
43153;BME280;28756;49.064;9.290;2024-02-21T06:18:18;99828.84;;;2.95;100.00
43153;BME280;28756;49.064;9.290;2024-02-21T06:20:44;99831.47;;;2.89;100.00
43153;BME280;28756;49.064;9.290;2024-02-21T06:23:17;99833.25;;;2.83;100.00
43153;BME280;28756;49.064;9.290;2024-02-21T06:25:43;99837.53;;;2.81;100.00
43153;BME280;28756;49.064;9.290;2024-02-21T06:28:09;99834.06;;;2.86;100.00
43153;BME280;28756;49.064;9.290;2024-02-21T06:30:35;99834.06;;;2.86;100.00
43153;BME280;28756;49.064;9.290;2024-02-21T06:33:01;99841.81;;;2.82;100.00
43153;BME280;28756;49.064;9.290;2024-02-21T06:35:28;99848.56;;;2.90;100.00
43153;BME280;28756;49.064;9.290;2024-02-21T06:37:55;99844.38;;;2.84;100.00
43153;BME280;28756;49.064;9.290;2024-02-21T06:40:23;99836.78;;;2.72;100.00
43153;BME280;28756;49.064;9.290;2024-02-21T06:42:56;99837.66;;;2.71;100.00
43153;BME280;28756;49.064;9.290;2024-02-21T06:45:22;99827.41;;;2.69;100.00
43153;BME280;28756;49.064;9.290;2024-02-21T06:47:48;99836.81;;;2.70;100.00
43153;BME280;28756;49.064;9.290;2024-02-21T06:50:15;99824.78;;;2.74;100.00
43153;BME280;28756;49.064;9.290;2024-02-21T06:52:41;99817.06;;;2.74;100.00
43153;BME280;28756;49.064;9.290;2024-02-21T06:55:07;99820.44;;;2.79;100.00
43153;BME280;28756;49.064;9.290;2024-02-21T06:57:33;99814.38;;;2.86;100.00
43153;BME280;28756;49.064;9.290;2024-02-21T06:59:59;99815.94;;;2.98;100.00
43153;BME280;28756;49.064;9.290;2024-02-21T07:02:31;99818.44;;;3.06;100.00
43153;BME280;28756;49.064;9.290;2024-02-21T07:05:05;99811.47;;;3.15;100.00
43153;BME280;28756;49.064;9.290;2024-02-21T07:07:31;99825.09;;;3.22;100.00
43153;BME280;28756;49.064;9.290;2024-02-21T07:09:56;99810.47;;;3.24;100.00
43153;BME280;28756;49.064;9.290;2024-02-21T07:12:22;99813.78;;;3.32;100.00
43153;BME280;28756;49.064;9.290;2024-02-21T07:14:48;99809.41;;;3.42;100.00
43153;BME280;28756;49.064;9.290;2024-02-21T07:17:14;99801.59;;;3.48;100.00
43153;BME280;28756;49.064;9.290;2024-02-21T07:19:39;99784.34;;;3.57;100.00
43153;BME280;28756;49.064;9.290;2024-02-21T07:22:05;99786.75;;;3.68;100.00
43153;BME280;28756;49.064;9.290;2024-02-21T07:24:31;99787.47;;;3.76;100.00
43153;BME280;28756;49.064;9.290;2024-02-21T07:26:57;99785.69;;;3.83;100.00
43153;BME280;28756;49.064;9.290;2024-02-21T07:29:23;99775.25;;;3.90;100.00
43153;BME280;28756;49.064;9.290;2024-02-21T07:31:48;99767.38;;;4.00;100.00
43153;BME280;28756;49.064;9.290;2024-02-21T07:34:14;99767.16;;;4.12;100.00
43153;BME280;28756;49.064;9.290;2024-02-21T07:36:40;99778.16;;;4.22;100.00
43153;BME280;28756;49.064;9.290;2024-02-21T07:39:08;99760.03;;;4.28;100.00
43153;BME280;28756;49.064;9.290;2024-02-21T07:41:34;99748.69;;;4.37;100.00
43153;BME280;28756;49.064;9.290;2024-02-21T07:44:00;99752.81;;;4.47;100.00
43153;BME280;28756;49.064;9.290;2024-02-21T07:46:26;99742.31;;;4.58;100.00
43153;BME280;28756;49.064;9.290;2024-02-21T07:48:52;99736.97;;;4.66;100.00
43153;BME280;28756;49.064;9.290;2024-02-21T07:51:17;99729.94;;;4.76;100.00
43153;BME280;28756;49.064;9.290;2024-02-21T07:53:44;99717.72;;;4.85;100.00
43153;BME280;28756;49.064;9.290;2024-02-21T07:56:20;99708.03;;;4.97;100.00
43153;BME280;28756;49.064;9.290;2024-02-21T07:58:45;99703.53;;;5.06;100.00
43153;BME280;28756;49.064;9.290;2024-02-21T08:01:11;99702.44;;;5.15;100.00
43153;BME280;28756;49.064;9.290;2024-02-21T08:03:37;99706.53;;;5.26;100.00
43153;BME280;28756;49.064;9.290;2024-02-21T08:06:03;99712.31;;;5.35;100.00
43153;BME280;28756;49.064;9.290;2024-02-21T08:08:29;99710.47;;;5.41;100.00
43153;BME280;28756;49.064;9.290;2024-02-21T08:10:55;99687.09;;;5.48;100.00
43153;BME280;28756;49.064;9.290;2024-02-21T08:13:21;99695.44;;;5.60;100.00
43153;BME280;28756;49.064;9.290;2024-02-21T08:15:47;99697.03;;;5.64;100.00
43153;BME280;28756;49.064;9.290;2024-02-21T08:18:12;99694.22;;;5.73;100.00
43153;BME280;28756;49.064;9.290;2024-02-21T08:20:38;99684.03;;;5.68;100.00
43153;BME280;28756;49.064;9.290;2024-02-21T08:23:04;99669.91;;;5.82;100.00
43153;BME280;28756;49.064;9.290;2024-02-21T08:25:30;99667.44;;;5.79;100.00
43153;BME280;28756;49.064;9.290;2024-02-21T08:28:10;99664.81;;;5.80;100.00
43153;BME280;28756;49.064;9.290;2024-02-21T08:30:39;99666.25;;;5.91;100.00
43153;BME280;28756;49.064;9.290;2024-02-21T08:33:05;99660.84;;;6.02;100.00
43153;BME280;28756;49.064;9.290;2024-02-21T08:35:30;99667.38;;;6.15;100.00
43153;BME280;28756;49.064;9.290;2024-02-21T08:37:56;99662.59;;;6.32;100.00
43153;BME280;28756;49.064;9.290;2024-02-21T08:40:24;99664.31;;;6.32;100.00
43153;BME280;28756;49.064;9.290;2024-02-21T08:42:53;99669.34;;;6.37;100.00
43153;BME280;28756;49.064;9.290;2024-02-21T08:45:19;99649.31;;;6.45;100.00
43153;BME280;28756;49.064;9.290;2024-02-21T08:47:45;99644.75;;;6.55;100.00
43153;BME280;28756;49.064;9.290;2024-02-21T08:50:27;99642.88;;;6.60;100.00
43153;BME280;28756;49.064;9.290;2024-02-21T08:53:13;99631.50;;;6.66;100.00
43153;BME280;28756;49.064;9.290;2024-02-21T08:55:46;99629.50;;;6.75;100.00
43153;BME280;28756;49.064;9.290;2024-02-21T08:58:24;99639.84;;;6.75;100.00
43153;BME280;28756;49.064;9.290;2024-02-21T09:01:14;99639.38;;;6.91;100.00
43153;BME280;28756;49.064;9.290;2024-02-21T09:06:32;99632.13;;;7.02;100.00
43153;BME280;28756;49.064;9.290;2024-02-21T09:11:48;99612.53;;;6.67;100.00
43153;BME280;28756;49.064;9.290;2024-02-21T09:14:13;99612.97;;;6.81;100.00
43153;BME280;28756;49.064;9.290;2024-02-21T09:19:18;99601.72;;;6.82;100.00
43153;BME280;28756;49.064;9.290;2024-02-21T09:22:06;99615.63;;;6.78;100.00
43153;BME280;28756;49.064;9.290;2024-02-21T09:24:44;99608.00;;;7.02;100.00
43153;BME280;28756;49.064;9.290;2024-02-21T09:27:13;99608.88;;;7.01;100.00
43153;BME280;28756;49.064;9.290;2024-02-21T09:29:39;99605.06;;;7.13;100.00
43153;BME280;28756;49.064;9.290;2024-02-21T09:32:11;99596.06;;;7.24;100.00
43153;BME280;28756;49.064;9.290;2024-02-21T09:35:28;99584.75;;;7.29;100.00
43153;BME280;28756;49.064;9.290;2024-02-21T09:37:57;99582.47;;;7.45;100.00
43153;BME280;28756;49.064;9.290;2024-02-21T09:40:23;99584.59;;;7.58;100.00
43153;BME280;28756;49.064;9.290;2024-02-21T09:43:08;99578.25;;;7.67;100.00
43153;BME280;28756;49.064;9.290;2024-02-21T09:45:38;99584.38;;;7.65;100.00
43153;BME280;28756;49.064;9.290;2024-02-21T09:48:42;99571.28;;;7.69;100.00
43153;BME280;28756;49.064;9.290;2024-02-21T09:51:19;99573.25;;;7.86;100.00
43153;BME280;28756;49.064;9.290;2024-02-21T09:53:53;99574.53;;;8.24;100.00
43153;BME280;28756;49.064;9.290;2024-02-21T09:56:19;99573.41;;;8.31;100.00
43153;BME280;28756;49.064;9.290;2024-02-21T09:58:47;99570.09;;;8.27;100.00
43153;BME280;28756;49.064;9.290;2024-02-21T10:01:12;99564.91;;;8.27;100.00
43153;BME280;28756;49.064;9.290;2024-02-21T10:03:49;99559.91;;;8.45;100.00
43153;BME280;28756;49.064;9.290;2024-02-21T10:06:29;99544.34;;;8.68;100.00
43153;BME280;28756;49.064;9.290;2024-02-21T10:09:05;99546.88;;;8.70;100.00
43153;BME280;28756;49.064;9.290;2024-02-21T10:12:06;99533.66;;;8.54;100.00
43153;BME280;28756;49.064;9.290;2024-02-21T10:14:36;99531.72;;;8.81;100.00
43153;BME280;28756;49.064;9.290;2024-02-21T10:17:16;99529.38;;;8.97;100.00
43153;BME280;28756;49.064;9.290;2024-02-21T10:19:49;99516.19;;;9.43;100.00
43153;BME280;28756;49.064;9.290;2024-02-21T10:22:17;99515.66;;;9.95;100.00
43153;BME280;28756;49.064;9.290;2024-02-21T10:24:43;99503.03;;;10.45;100.00
43153;BME280;28756;49.064;9.290;2024-02-21T10:27:36;99499.22;;;10.89;100.00
43153;BME280;28756;49.064;9.290;2024-02-21T10:30:05;99486.16;;;11.42;100.00
43153;BME280;28756;49.064;9.290;2024-02-21T10:32:31;99482.31;;;11.49;100.00
43153;BME280;28756;49.064;9.290;2024-02-21T10:35:04;99476.81;;;11.55;100.00
43153;BME280;28756;49.064;9.290;2024-02-21T10:37:31;99479.94;;;10.39;100.00
43153;BME280;28756;49.064;9.290;2024-02-21T10:40:09;99488.16;;;10.10;100.00
43153;BME280;28756;49.064;9.290;2024-02-21T10:42:40;99477.97;;;10.06;100.00
43153;BME280;28756;49.064;9.290;2024-02-21T10:45:14;99470.03;;;10.47;100.00
43153;BME280;28756;49.064;9.290;2024-02-21T10:47:56;99466.75;;;10.96;100.00
43153;BME280;28756;49.064;9.290;2024-02-21T10:50:43;99466.78;;;10.04;100.00
43153;BME280;28756;49.064;9.290;2024-02-21T10:53:46;99467.38;;;9.52;100.00
43153;BME280;28756;49.064;9.290;2024-02-21T10:56:44;99444.81;;;9.92;100.00
43153;BME280;28756;49.064;9.290;2024-02-21T10:59:30;99445.19;;;9.25;100.00
43153;BME280;28756;49.064;9.290;2024-02-21T11:02:06;99445.31;;;9.62;100.00
43153;BME280;28756;49.064;9.290;2024-02-21T11:04:42;99443.41;;;9.46;100.00
43153;BME280;28756;49.064;9.290;2024-02-21T11:07:20;99436.66;;;9.42;100.00
43153;BME280;28756;49.064;9.290;2024-02-21T11:10:27;99434.00;;;9.63;100.00
43153;BME280;28756;49.064;9.290;2024-02-21T11:13:29;99418.00;;;9.91;100.00
43153;BME280;28756;49.064;9.290;2024-02-21T11:16:10;99411.31;;;10.05;100.00
43153;BME280;28756;49.064;9.290;2024-02-21T11:18:39;99399.06;;;9.89;100.00
43153;BME280;28756;49.064;9.290;2024-02-21T11:21:12;99399.63;;;9.96;100.00
43153;BME280;28756;49.064;9.290;2024-02-21T11:23:55;99396.28;;;10.11;100.00
43153;BME280;28756;49.064;9.290;2024-02-21T11:26:28;99387.63;;;10.11;100.00
43153;BME280;28756;49.064;9.290;2024-02-21T11:29:05;99387.19;;;9.45;100.00
43153;BME280;28756;49.064;9.290;2024-02-21T11:31:43;99383.81;;;9.43;100.00
43153;BME280;28756;49.064;9.290;2024-02-21T11:34:11;99377.72;;;9.83;100.00
43153;BME280;28756;49.064;9.290;2024-02-21T11:36:57;99374.81;;;10.08;100.00
43153;BME280;28756;49.064;9.290;2024-02-21T11:39:25;99367.75;;;10.29;100.00
43153;BME280;28756;49.064;9.290;2024-02-21T11:42:05;99364.31;;;10.46;100.00
43153;BME280;28756;49.064;9.290;2024-02-21T11:44:36;99347.84;;;10.81;100.00
43153;BME280;28756;49.064;9.290;2024-02-21T11:47:08;99350.81;;;10.20;100.00
43153;BME280;28756;49.064;9.290;2024-02-21T11:49:42;99345.06;;;9.96;100.00
43153;BME280;28756;49.064;9.290;2024-02-21T11:52:08;99339.19;;;10.27;100.00
43153;BME280;28756;49.064;9.290;2024-02-21T11:54:34;99333.22;;;10.96;100.00
43153;BME280;28756;49.064;9.290;2024-02-21T11:57:01;99322.88;;;10.61;100.00
43153;BME280;28756;49.064;9.290;2024-02-21T11:59:30;99316.63;;;10.47;100.00
43153;BME280;28756;49.064;9.290;2024-02-21T12:01:59;99306.91;;;10.84;100.00
43153;BME280;28756;49.064;9.290;2024-02-21T12:04:43;99304.53;;;10.64;100.00
43153;BME280;28756;49.064;9.290;2024-02-21T12:07:09;99301.53;;;10.36;100.00
43153;BME280;28756;49.064;9.290;2024-02-21T12:09:38;99301.81;;;10.30;100.00
43153;BME280;28756;49.064;9.290;2024-02-21T12:12:27;99293.53;;;10.41;100.00
43153;BME280;28756;49.064;9.290;2024-02-21T12:15:40;99298.34;;;10.82;100.00
43153;BME280;28756;49.064;9.290;2024-02-21T12:18:32;99293.66;;;10.73;100.00
43153;BME280;28756;49.064;9.290;2024-02-21T12:21:15;99282.97;;;10.44;100.00
43153;BME280;28756;49.064;9.290;2024-02-21T12:23:56;99268.28;;;10.43;100.00
43153;BME280;28756;49.064;9.290;2024-02-21T12:26:35;99257.75;;;10.62;100.00
43153;BME280;28756;49.064;9.290;2024-02-21T12:29:05;99258.78;;;10.42;100.00
43153;BME280;28756;49.064;9.290;2024-02-21T12:31:58;99254.13;;;10.49;100.00
43153;BME280;28756;49.064;9.290;2024-02-21T12:34:46;99246.72;;;10.74;100.00
43153;BME280;28756;49.064;9.290;2024-02-21T12:37:21;99245.09;;;10.56;100.00
43153;BME280;28756;49.064;9.290;2024-02-21T12:40:24;99242.81;;;10.32;100.00
43153;BME280;28756;49.064;9.290;2024-02-21T12:43:02;99237.81;;;10.63;100.00
43153;BME280;28756;49.064;9.290;2024-02-21T12:45:31;99228.63;;;10.22;100.00
43153;BME280;28756;49.064;9.290;2024-02-21T12:48:43;99214.97;;;10.52;100.00
43153;BME280;28756;49.064;9.290;2024-02-21T12:51:23;99202.19;;;10.65;100.00
43153;BME280;28756;49.064;9.290;2024-02-21T12:54:18;99201.84;;;10.71;100.00
43153;BME280;28756;49.064;9.290;2024-02-21T12:57:17;99195.78;;;10.70;100.00
43153;BME280;28756;49.064;9.290;2024-02-21T13:00:27;99189.59;;;10.73;100.00
43153;BME280;28756;49.064;9.290;2024-02-21T13:03:06;99182.03;;;10.84;100.00
43153;BME280;28756;49.064;9.290;2024-02-21T13:10:07;99177.94;;;10.96;100.00
43153;BME280;28756;49.064;9.290;2024-02-21T13:12:50;99166.59;;;10.81;100.00
43153;BME280;28756;49.064;9.290;2024-02-21T13:15:25;99167.34;;;10.34;100.00
43153;BME280;28756;49.064;9.290;2024-02-21T13:18:29;99158.78;;;10.65;100.00
43153;BME280;28756;49.064;9.290;2024-02-21T13:21:17;99151.66;;;10.35;100.00
43153;BME280;28756;49.064;9.290;2024-02-21T13:27:44;99137.66;;;10.55;100.00
43153;BME280;28756;49.064;9.290;2024-02-21T13:30:19;99126.00;;;10.63;100.00
43153;BME280;28756;49.064;9.290;2024-02-21T13:33:07;99117.19;;;10.49;100.00
43153;BME280;28756;49.064;9.290;2024-02-21T13:35:51;99109.38;;;10.65;100.00